sensor_id;sensor_type;location;lat;lon;timestamp;pressure;altitude;pressure_sealevel;temperature;humidity
72024;BME280;59889;50.700;5.440;2023-05-07T00:00:29;100003.82;;;24.50;34.69
72024;BME280;59889;50.700;5.440;2023-05-07T00:02:54;100002.84;;;24.65;34.50
72024;BME280;59889;50.700;5.440;2023-05-07T00:05:19;100003.30;;;24.62;34.53
72024;BME280;59889;50.700;5.440;2023-05-07T00:07:44;100005.56;;;24.61;34.56
72024;BME280;59889;50.700;5.440;2023-05-07T00:10:10;100004.49;;;24.43;34.79
72024;BME280;59889;50.700;5.440;2023-05-07T00:12:34;100003.29;;;24.27;34.68
72024;BME280;59889;50.700;5.440;2023-05-07T00:15:01;100000.49;;;24.52;34.64
72024;BME280;59889;50.700;5.440;2023-05-07T00:17:26;99996.49;;;24.54;34.67
72024;BME280;59889;50.700;5.440;2023-05-07T00:19:52;99995.85;;;24.53;34.64
72024;BME280;59889;50.700;5.440;2023-05-07T00:22:18;99997.62;;;24.48;34.72
72024;BME280;59889;50.700;5.440;2023-05-07T00:24:43;99998.65;;;24.24;34.71
72024;BME280;59889;50.700;5.440;2023-05-07T00:27:09;99999.09;;;24.59;34.57
72024;BME280;59889;50.700;5.440;2023-05-07T00:29:35;100001.15;;;24.71;34.40
72024;BME280;59889;50.700;5.440;2023-05-07T00:32:01;100001.30;;;24.26;34.72
72024;BME280;59889;50.700;5.440;2023-05-07T00:34:27;99997.45;;;24.56;34.65
72024;BME280;59889;50.700;5.440;2023-05-07T00:36:53;99993.69;;;24.31;34.65
72024;BME280;59889;50.700;5.440;2023-05-07T00:39:18;99988.89;;;24.26;34.67
72024;BME280;59889;50.700;5.440;2023-05-07T00:41:43;99984.39;;;24.22;34.73
72024;BME280;59889;50.700;5.440;2023-05-07T00:44:08;99986.08;;;24.40;34.49
72024;BME280;59889;50.700;5.440;2023-05-07T00:46:33;99987.30;;;24.13;34.53
72024;BME280;59889;50.700;5.440;2023-05-07T00:48:59;99986.97;;;24.43;34.76
72024;BME280;59889;50.700;5.440;2023-05-07T00:51:23;99982.46;;;24.48;34.69
72024;BME280;59889;50.700;5.440;2023-05-07T00:53:48;99983.89;;;24.46;34.72
72024;BME280;59889;50.700;5.440;2023-05-07T00:56:13;99981.27;;;24.32;34.61
72024;BME280;59889;50.700;5.440;2023-05-07T00:58:39;99980.51;;;24.10;34.88
72024;BME280;59889;50.700;5.440;2023-05-07T01:01:04;99976.56;;;24.53;34.67
72024;BME280;59889;50.700;5.440;2023-05-07T01:03:29;99972.50;;;24.76;34.31
72024;BME280;59889;50.700;5.440;2023-05-07T01:05:55;99970.74;;;24.09;34.58
72024;BME280;59889;50.700;5.440;2023-05-07T01:08:20;99969.96;;;24.39;34.82
72024;BME280;59889;50.700;5.440;2023-05-07T01:10:45;99969.48;;;24.47;34.74
72024;BME280;59889;50.700;5.440;2023-05-07T01:13:10;99965.08;;;24.51;34.68
72024;BME280;59889;50.700;5.440;2023-05-07T01:15:34;99963.37;;;24.24;34.68
72024;BME280;59889;50.700;5.440;2023-05-07T01:17:59;99959.72;;;24.30;34.62
72024;BME280;59889;50.700;5.440;2023-05-07T01:20:24;99956.20;;;24.65;34.48
72024;BME280;59889;50.700;5.440;2023-05-07T01:22:50;99951.59;;;24.03;34.64
72024;BME280;59889;50.700;5.440;2023-05-07T01:25:15;99950.74;;;24.41;34.79
72024;BME280;59889;50.700;5.440;2023-05-07T01:27:41;99953.34;;;24.69;34.44
72024;BME280;59889;50.700;5.440;2023-05-07T01:30:08;99953.30;;;24.19;34.78
72024;BME280;59889;50.700;5.440;2023-05-07T01:32:36;99955.55;;;24.58;34.54
72024;BME280;59889;50.700;5.440;2023-05-07T01:35:00;99954.28;;;24.30;34.61
72024;BME280;59889;50.700;5.440;2023-05-07T01:37:24;99950.52;;;24.41;34.45
72024;BME280;59889;50.700;5.440;2023-05-07T01:39:49;99951.55;;;24.50;34.67
72024;BME280;59889;50.700;5.440;2023-05-07T01:42:14;99954.10;;;24.51;34.65
72024;BME280;59889;50.700;5.440;2023-05-07T01:44:39;99957.21;;;24.50;34.66
72024;BME280;59889;50.700;5.440;2023-05-07T01:47:04;99957.69;;;24.22;34.70
72024;BME280;59889;50.700;5.440;2023-05-07T01:49:29;99957.38;;;24.19;34.75
72024;BME280;59889;50.700;5.440;2023-05-07T01:51:54;99959.92;;;24.23;34.69
72024;BME280;59889;50.700;5.440;2023-05-07T01:54:25;99963.30;;;24.52;34.64
72024;BME280;59889;50.700;5.440;2023-05-07T01:56:45;99960.31;;;24.60;34.53
72024;BME280;59889;50.700;5.440;2023-05-07T01:59:11;99960.94;;;24.55;34.60
72024;BME280;59889;50.700;5.440;2023-05-07T02:01:36;99963.17;;;24.51;34.65
72024;BME280;59889;50.700;5.440;2023-05-07T02:04:01;99967.14;;;24.50;34.67
72024;BME280;59889;50.700;5.440;2023-05-07T02:06:26;99973.84;;;24.62;34.52
72024;BME280;59889;50.700;5.440;2023-05-07T02:08:51;99975.65;;;24.31;34.59
72024;BME280;59889;50.700;5.440;2023-05-07T02:11:16;99979.15;;;24.46;34.41
72024;BME280;59889;50.700;5.440;2023-05-07T02:13:41;99981.80;;;24.60;34.55
72024;BME280;59889;50.700;5.440;2023-05-07T02:16:06;99983.41;;;24.33;34.55
72024;BME280;59889;50.700;5.440;2023-05-07T02:18:31;99983.73;;;24.57;34.30
72024;BME280;59889;50.700;5.440;2023-05-07T02:20:56;99978.77;;;24.21;34.71
72024;BME280;59889;50.700;5.440;2023-05-07T02:23:21;99978.12;;;24.51;34.63
72024;BME280;59889;50.700;5.440;2023-05-07T02:25:46;99973.07;;;24.60;34.52
72024;BME280;59889;50.700;5.440;2023-05-07T02:28:12;99968.46;;;24.21;34.73
72024;BME280;59889;50.700;5.440;2023-05-07T02:30:37;99966.02;;;24.31;34.60
72024;BME280;59889;50.700;5.440;2023-05-07T02:33:03;99968.07;;;24.63;34.47
72024;BME280;59889;50.700;5.440;2023-05-07T02:35:28;99969.59;;;24.79;34.27
72024;BME280;59889;50.700;5.440;2023-05-07T02:37:53;99970.14;;;24.38;34.49
72024;BME280;59889;50.700;5.440;2023-05-07T02:40:18;99970.57;;;24.43;34.72
72024;BME280;59889;50.700;5.440;2023-05-07T02:42:43;99967.39;;;24.12;34.53
72024;BME280;59889;50.700;5.440;2023-05-07T02:45:09;99965.61;;;24.52;34.61
72024;BME280;59889;50.700;5.440;2023-05-07T02:47:33;99962.56;;;24.54;34.61
72024;BME280;59889;50.700;5.440;2023-05-07T02:49:59;99957.35;;;24.77;34.59
72024;BME280;59889;50.700;5.440;2023-05-07T02:52:24;99953.37;;;24.31;34.60
72024;BME280;59889;50.700;5.440;2023-05-07T02:54:50;99954.29;;;24.58;34.53
72024;BME280;59889;50.700;5.440;2023-05-07T02:57:16;99954.30;;;24.15;34.78
72024;BME280;59889;50.700;5.440;2023-05-07T02:59:41;99953.40;;;24.14;34.79
72024;BME280;59889;50.700;5.440;2023-05-07T03:02:06;99950.26;;;24.58;34.54
72024;BME280;59889;50.700;5.440;2023-05-07T03:04:31;99947.65;;;24.16;34.47
72024;BME280;59889;50.700;5.440;2023-05-07T03:06:56;99945.68;;;24.79;34.26
72024;BME280;59889;50.700;5.440;2023-05-07T03:09:21;99943.68;;;24.57;34.54
72024;BME280;59889;50.700;5.440;2023-05-07T03:11:46;99940.05;;;24.51;34.64
72024;BME280;59889;50.700;5.440;2023-05-07T03:14:11;99937.48;;;24.41;34.74
72024;BME280;59889;50.700;5.440;2023-05-07T03:16:36;99939.63;;;24.29;34.61
72024;BME280;59889;50.700;5.440;2023-05-07T03:19:01;99939.42;;;24.63;34.48
72024;BME280;59889;50.700;5.440;2023-05-07T03:21:26;99941.83;;;24.27;34.60
72024;BME280;59889;50.700;5.440;2023-05-07T03:23:51;99945.63;;;24.55;34.57
72024;BME280;59889;50.700;5.440;2023-05-07T03:26:16;99944.13;;;24.55;34.57
72024;BME280;59889;50.700;5.440;2023-05-07T03:28:41;99944.24;;;24.43;34.72
72024;BME280;59889;50.700;5.440;2023-05-07T03:31:06;99948.82;;;24.59;34.51
72024;BME280;59889;50.700;5.440;2023-05-07T03:33:33;99952.23;;;24.68;34.70
72024;BME280;59889;50.700;5.440;2023-05-07T03:35:57;99952.16;;;24.56;34.55
72024;BME280;59889;50.700;5.440;2023-05-07T03:38:22;99950.64;;;24.46;34.38
72024;BME280;59889;50.700;5.440;2023-05-07T03:40:48;99948.83;;;24.67;34.40
72024;BME280;59889;50.700;5.440;2023-05-07T03:43:14;99949.29;;;24.38;34.50
72024;BME280;59889;50.700;5.440;2023-05-07T03:45:39;99950.96;;;24.03;34.60
72024;BME280;59889;50.700;5.440;2023-05-07T03:48:04;99950.79;;;24.44;34.70
72024;BME280;59889;50.700;5.440;2023-05-07T03:50:29;99947.60;;;24.31;34.55
72024;BME280;59889;50.700;5.440;2023-05-07T03:52:54;99951.14;;;24.38;34.78
72024;BME280;59889;50.700;5.440;2023-05-07T03:55:20;99949.36;;;24.27;34.59
72024;BME280;59889;50.700;5.440;2023-05-07T03:57:45;99951.43;;;24.74;34.34
72024;BME280;59889;50.700;5.440;2023-05-07T04:00:11;99951.35;;;24.59;34.52
72024;BME280;59889;50.700;5.440;2023-05-07T04:02:35;99953.04;;;24.61;34.47
72024;BME280;59889;50.700;5.440;2023-05-07T04:05:00;99953.76;;;24.27;34.29
72024;BME280;59889;50.700;5.440;2023-05-07T04:07:26;99953.29;;;24.29;34.30
72024;BME280;59889;50.700;5.440;2023-05-07T04:09:51;99951.26;;;24.31;34.57
72024;BME280;59889;50.700;5.440;2023-05-07T04:12:16;99950.05;;;24.55;34.54
72024;BME280;59889;50.700;5.440;2023-05-07T04:14:41;99951.09;;;24.47;34.68
72024;BME280;59889;50.700;5.440;2023-05-07T04:17:06;99952.62;;;24.58;34.54
72024;BME280;59889;50.700;5.440;2023-05-07T04:19:33;99952.92;;;24.42;34.44
72024;BME280;59889;50.700;5.440;2023-05-07T04:21:56;99952.69;;;24.56;34.54
72024;BME280;59889;50.700;5.440;2023-05-07T04:24:21;99953.35;;;24.36;34.47
72024;BME280;59889;50.700;5.440;2023-05-07T04:26:46;99954.76;;;24.59;34.23
72024;BME280;59889;50.700;5.440;2023-05-07T04:29:11;99956.55;;;24.47;34.65
72024;BME280;59889;50.700;5.440;2023-05-07T04:31:36;99954.73;;;24.34;34.56
72024;BME280;59889;50.700;5.440;2023-05-07T04:34:01;99954.57;;;24.61;34.46
72024;BME280;59889;50.700;5.440;2023-05-07T04:36:26;99957.56;;;24.63;34.45
72024;BME280;59889;50.700;5.440;2023-05-07T04:38:51;99959.01;;;24.32;34.51
72024;BME280;59889;50.700;5.440;2023-05-07T04:41:16;99959.34;;;24.49;34.32
72024;BME280;59889;50.700;5.440;2023-05-07T04:43:41;99960.57;;;24.64;34.44
72024;BME280;59889;50.700;5.440;2023-05-07T04:46:06;99964.98;;;24.32;34.51
72024;BME280;59889;50.700;5.440;2023-05-07T04:48:31;99967.67;;;24.30;34.53
72024;BME280;59889;50.700;5.440;2023-05-07T04:50:56;99968.74;;;24.23;34.63
72024;BME280;59889;50.700;5.440;2023-05-07T04:53:22;99971.57;;;24.60;34.44
72024;BME280;59889;50.700;5.440;2023-05-07T04:55:47;99974.05;;;24.56;34.50
72024;BME280;59889;50.700;5.440;2023-05-07T04:58:12;99972.68;;;24.37;34.46
72024;BME280;59889;50.700;5.440;2023-05-07T05:00:37;99974.49;;;24.39;34.42
72024;BME280;59889;50.700;5.440;2023-05-07T05:03:02;99975.64;;;24.70;34.37
72024;BME280;59889;50.700;5.440;2023-05-07T05:05:27;99976.59;;;24.46;34.33
72024;BME280;59889;50.700;5.440;2023-05-07T05:07:52;99982.21;;;24.82;34.32
72024;BME280;59889;50.700;5.440;2023-05-07T05:10:17;99984.59;;;24.73;35.16
72024;BME280;59889;50.700;5.440;2023-05-07T05:12:42;99988.35;;;24.71;35.23
72024;BME280;59889;50.700;5.440;2023-05-07T05:15:08;99991.55;;;24.30;35.51
72024;BME280;59889;50.700;5.440;2023-05-07T05:17:32;99993.53;;;24.52;35.49
72024;BME280;59889;50.700;5.440;2023-05-07T05:19:57;99996.69;;;24.60;35.36
72024;BME280;59889;50.700;5.440;2023-05-07T05:22:22;99999.24;;;24.65;35.26
72024;BME280;59889;50.700;5.440;2023-05-07T05:24:47;99998.30;;;24.65;35.19
72024;BME280;59889;50.700;5.440;2023-05-07T05:27:12;99997.81;;;24.52;35.30
72024;BME280;59889;50.700;5.440;2023-05-07T05:29:37;99999.76;;;24.24;35.31
72024;BME280;59889;50.700;5.440;2023-05-07T05:32:02;100000.41;;;24.38;35.40
72024;BME280;59889;50.700;5.440;2023-05-07T05:34:27;99999.92;;;24.67;35.27
72024;BME280;59889;50.700;5.440;2023-05-07T05:36:52;99997.57;;;24.38;35.27
72024;BME280;59889;50.700;5.440;2023-05-07T05:39:17;99998.08;;;24.46;35.14
72024;BME280;59889;50.700;5.440;2023-05-07T05:41:42;99994.51;;;24.47;35.11
72024;BME280;59889;50.700;5.440;2023-05-07T05:44:07;99995.04;;;24.26;35.34
72024;BME280;59889;50.700;5.440;2023-05-07T05:46:32;99994.50;;;24.40;35.14
72024;BME280;59889;50.700;5.440;2023-05-07T05:48:57;99993.71;;;24.30;35.21
72024;BME280;59889;50.700;5.440;2023-05-07T05:51:22;99992.87;;;24.39;35.07
72024;BME280;59889;50.700;5.440;2023-05-07T05:53:47;99991.09;;;24.31;35.10
72024;BME280;59889;50.700;5.440;2023-05-07T05:56:12;99988.13;;;24.31;35.09
72024;BME280;59889;50.700;5.440;2023-05-07T05:58:37;99991.09;;;24.32;35.08
72024;BME280;59889;50.700;5.440;2023-05-07T06:01:02;99991.45;;;24.07;35.06
72024;BME280;59889;50.700;5.440;2023-05-07T06:03:27;99995.30;;;24.41;34.92
72024;BME280;59889;50.700;5.440;2023-05-07T06:05:53;99999.16;;;24.33;35.00
72024;BME280;59889;50.700;5.440;2023-05-07T06:08:18;100003.22;;;24.27;35.04
72024;BME280;59889;50.700;5.440;2023-05-07T06:10:43;100007.82;;;24.33;34.96
72024;BME280;59889;50.700;5.440;2023-05-07T06:13:08;100012.58;;;24.32;34.93
72024;BME280;59889;50.700;5.440;2023-05-07T06:15:33;100012.17;;;24.35;34.88
72024;BME280;59889;50.700;5.440;2023-05-07T06:17:58;100012.04;;;24.36;34.84
72024;BME280;59889;50.700;5.440;2023-05-07T06:20:24;100010.81;;;24.41;34.75
72024;BME280;59889;50.700;5.440;2023-05-07T06:22:49;100012.36;;;23.86;34.81
72024;BME280;59889;50.700;5.440;2023-05-07T06:25:16;100016.78;;;24.21;34.92
72024;BME280;59889;50.700;5.440;2023-05-07T06:27:40;100013.02;;;24.31;34.77
72024;BME280;59889;50.700;5.440;2023-05-07T06:30:07;100018.08;;;24.32;34.77
72024;BME280;59889;50.700;5.440;2023-05-07T06:32:31;100021.08;;;24.31;34.77
72024;BME280;59889;50.700;5.440;2023-05-07T06:34:56;100024.64;;;24.29;34.75
72024;BME280;59889;50.700;5.440;2023-05-07T06:37:21;100026.30;;;24.56;34.79
72024;BME280;59889;50.700;5.440;2023-05-07T06:39:46;100030.87;;;24.24;34.90
72024;BME280;59889;50.700;5.440;2023-05-07T06:42:11;100031.48;;;24.27;34.88
72024;BME280;59889;50.700;5.440;2023-05-07T06:44:36;100031.14;;;24.23;34.93
72024;BME280;59889;50.700;5.440;2023-05-07T06:47:01;100031.19;;;24.31;34.80
72024;BME280;59889;50.700;5.440;2023-05-07T06:49:26;100034.27;;;24.56;34.80
72024;BME280;59889;50.700;5.440;2023-05-07T06:51:52;100032.30;;;23.99;34.92
72024;BME280;59889;50.700;5.440;2023-05-07T06:54:17;100034.87;;;24.27;34.86
72024;BME280;59889;50.700;5.440;2023-05-07T06:56:43;100035.47;;;24.21;34.94
72024;BME280;59889;50.700;5.440;2023-05-07T06:59:08;100032.33;;;23.96;35.03
72024;BME280;59889;50.700;5.440;2023-05-07T07:01:33;100033.47;;;24.22;34.94
72024;BME280;59889;50.700;5.440;2023-05-07T07:03:58;100037.29;;;24.19;34.95
72024;BME280;59889;50.700;5.440;2023-05-07T07:06:23;100035.90;;;24.27;34.86
72024;BME280;59889;50.700;5.440;2023-05-07T07:08:49;100030.62;;;24.37;34.27
72024;BME280;59889;50.700;5.440;2023-05-07T07:11:15;100031.36;;;24.59;33.81
72024;BME280;59889;50.700;5.440;2023-05-07T07:13:48;100030.17;;;24.41;33.25
72024;BME280;59889;50.700;5.440;2023-05-07T07:16:05;100033.17;;;24.39;32.85
72024;BME280;59889;50.700;5.440;2023-05-07T07:18:29;100034.79;;;24.47;32.94
72024;BME280;59889;50.700;5.440;2023-05-07T07:20:55;100035.88;;;24.56;32.70
72024;BME280;59889;50.700;5.440;2023-05-07T07:23:20;100037.61;;;24.37;32.51
72024;BME280;59889;50.700;5.440;2023-05-07T07:25:46;100039.70;;;24.04;33.56
72024;BME280;59889;50.700;5.440;2023-05-07T07:28:12;100042.83;;;24.13;33.83
72024;BME280;59889;50.700;5.440;2023-05-07T07:30:37;100045.79;;;24.22;33.92
72024;BME280;59889;50.700;5.440;2023-05-07T07:33:03;100044.35;;;24.21;34.01
72024;BME280;59889;50.700;5.440;2023-05-07T07:35:29;100044.90;;;24.19;33.96
72024;BME280;59889;50.700;5.440;2023-05-07T07:37:54;100045.11;;;24.33;33.73
72024;BME280;59889;50.700;5.440;2023-05-07T07:40:19;100044.60;;;24.20;33.87
72024;BME280;59889;50.700;5.440;2023-05-07T07:42:44;100045.65;;;24.49;33.91
72024;BME280;59889;50.700;5.440;2023-05-07T07:45:10;100047.07;;;24.23;33.95
72024;BME280;59889;50.700;5.440;2023-05-07T07:47:34;100052.09;;;24.54;33.81
72024;BME280;59889;50.700;5.440;2023-05-07T07:49:59;100049.63;;;24.24;33.85
72024;BME280;59889;50.700;5.440;2023-05-07T07:52:24;100050.05;;;24.22;33.91
72024;BME280;59889;50.700;5.440;2023-05-07T07:54:49;100050.87;;;24.34;33.70
72024;BME280;59889;50.700;5.440;2023-05-07T07:57:14;100051.62;;;24.49;33.53
72024;BME280;59889;50.700;5.440;2023-05-07T07:59:39;100056.00;;;24.17;33.86
72024;BME280;59889;50.700;5.440;2023-05-07T08:02:04;100059.09;;;24.31;33.67
72024;BME280;59889;50.700;5.440;2023-05-07T08:04:29;100057.90;;;24.46;33.56
72024;BME280;59889;50.700;5.440;2023-05-07T08:06:54;100058.52;;;24.31;33.65
72024;BME280;59889;50.700;5.440;2023-05-07T08:09:19;100057.68;;;24.40;33.94
72024;BME280;59889;50.700;5.440;2023-05-07T08:11:44;100052.85;;;24.24;33.81
72024;BME280;59889;50.700;5.440;2023-05-07T08:14:09;100050.87;;;24.38;33.56
72024;BME280;59889;50.700;5.440;2023-05-07T08:16:34;100049.29;;;24.43;33.83
72024;BME280;59889;50.700;5.440;2023-05-07T08:18:59;100050.53;;;24.29;33.73
72024;BME280;59889;50.700;5.440;2023-05-07T08:21:24;100056.69;;;24.15;33.85
72024;BME280;59889;50.700;5.440;2023-05-07T08:23:49;100059.30;;;24.41;33.92
72024;BME280;59889;50.700;5.440;2023-05-07T08:26:14;100062.61;;;24.36;33.66
72024;BME280;59889;50.700;5.440;2023-05-07T08:28:39;100062.95;;;24.40;33.76
72024;BME280;59889;50.700;5.440;2023-05-07T08:31:05;100060.88;;;24.40;33.76
72024;BME280;59889;50.700;5.440;2023-05-07T08:33:31;100062.07;;;24.21;33.70
72024;BME280;59889;50.700;5.440;2023-05-07T08:35:56;100061.88;;;24.39;33.60
72024;BME280;59889;50.700;5.440;2023-05-07T08:38:21;100059.46;;;24.14;33.82
72024;BME280;59889;50.700;5.440;2023-05-07T08:40:46;100063.31;;;24.61;33.42
72024;BME280;59889;50.700;5.440;2023-05-07T08:43:13;100062.96;;;24.29;33.43
72024;BME280;59889;50.700;5.440;2023-05-07T08:45:38;100064.77;;;24.27;33.11
72024;BME280;59889;50.700;5.440;2023-05-07T08:48:03;100065.26;;;24.15;33.32
72024;BME280;59889;50.700;5.440;2023-05-07T08:50:26;100067.44;;;24.39;33.49
72024;BME280;59889;50.700;5.440;2023-05-07T08:52:51;100069.83;;;24.20;33.41
72024;BME280;59889;50.700;5.440;2023-05-07T08:55:17;100070.78;;;24.40;33.26
72024;BME280;59889;50.700;5.440;2023-05-07T08:57:41;100074.02;;;24.47;33.20
72024;BME280;59889;50.700;5.440;2023-05-07T09:00:07;100073.84;;;24.45;33.31
72024;BME280;59889;50.700;5.440;2023-05-07T09:02:31;100075.47;;;24.14;33.58
72024;BME280;59889;50.700;5.440;2023-05-07T09:04:57;100081.42;;;24.14;33.37
72024;BME280;59889;50.700;5.440;2023-05-07T09:07:22;100082.19;;;24.33;33.45
72024;BME280;59889;50.700;5.440;2023-05-07T09:09:46;100085.60;;;24.25;33.46
72024;BME280;59889;50.700;5.440;2023-05-07T09:12:11;100088.82;;;24.67;33.72
72024;BME280;59889;50.700;5.440;2023-05-07T09:14:36;100095.57;;;24.13;34.22
72024;BME280;59889;50.700;5.440;2023-05-07T09:17:01;100096.91;;;24.06;34.29
72024;BME280;59889;50.700;5.440;2023-05-07T09:19:27;100098.51;;;23.98;34.40
72024;BME280;59889;50.700;5.440;2023-05-07T09:21:57;100100.27;;;24.08;34.35
72024;BME280;59889;50.700;5.440;2023-05-07T09:24:16;100098.87;;;24.36;34.29
72024;BME280;59889;50.700;5.440;2023-05-07T09:26:41;100099.93;;;24.16;34.29
72024;BME280;59889;50.700;5.440;2023-05-07T09:29:07;100105.55;;;24.10;34.43
72024;BME280;59889;50.700;5.440;2023-05-07T09:31:31;100108.15;;;24.43;34.04
72024;BME280;59889;50.700;5.440;2023-05-07T09:33:57;100110.33;;;24.24;34.31
72024;BME280;59889;50.700;5.440;2023-05-07T09:36:22;100110.12;;;24.36;34.25
72024;BME280;59889;50.700;5.440;2023-05-07T09:38:48;100110.52;;;24.26;34.58
72024;BME280;59889;50.700;5.440;2023-05-07T09:41:13;100109.55;;;24.33;34.96
72024;BME280;59889;50.700;5.440;2023-05-07T09:43:40;100110.33;;;24.40;35.00
72024;BME280;59889;50.700;5.440;2023-05-07T09:46:07;100117.37;;;24.48;35.48
72024;BME280;59889;50.700;5.440;2023-05-07T09:48:30;100116.85;;;24.40;35.27
72024;BME280;59889;50.700;5.440;2023-05-07T09:50:55;100121.74;;;24.37;35.40
72024;BME280;59889;50.700;5.440;2023-05-07T09:53:19;100122.23;;;24.50;35.33
72024;BME280;59889;50.700;5.440;2023-05-07T09:55:45;100127.85;;;24.54;35.32
72024;BME280;59889;50.700;5.440;2023-05-07T09:58:12;100131.07;;;24.43;35.58
72024;BME280;59889;50.700;5.440;2023-05-07T10:00:35;100131.46;;;24.46;35.64
72024;BME280;59889;50.700;5.440;2023-05-07T10:03:01;100129.39;;;24.44;35.76
72024;BME280;59889;50.700;5.440;2023-05-07T10:05:26;100132.14;;;24.24;35.83
72024;BME280;59889;50.700;5.440;2023-05-07T10:07:50;100136.04;;;24.32;35.93
72024;BME280;59889;50.700;5.440;2023-05-07T10:10:16;100138.82;;;24.37;35.89
72024;BME280;59889;50.700;5.440;2023-05-07T10:12:41;100136.92;;;24.58;35.69
72024;BME280;59889;50.700;5.440;2023-05-07T10:15:07;100138.60;;;24.81;35.72
72024;BME280;59889;50.700;5.440;2023-05-07T10:17:31;100142.82;;;24.43;36.15
72024;BME280;59889;50.700;5.440;2023-05-07T10:19:56;100140.92;;;24.36;36.08
72024;BME280;59889;50.700;5.440;2023-05-07T10:22:22;100142.27;;;24.76;35.95
72024;BME280;59889;50.700;5.440;2023-05-07T10:24:48;100145.75;;;24.89;36.06
72024;BME280;59889;50.700;5.440;2023-05-07T10:27:13;100148.49;;;24.60;36.09
72024;BME280;59889;50.700;5.440;2023-05-07T10:29:42;100150.65;;;24.11;36.19
72024;BME280;59889;50.700;5.440;2023-05-07T10:32:16;100150.30;;;24.67;36.16
72024;BME280;59889;50.700;5.440;2023-05-07T10:34:32;100150.49;;;24.73;36.28
72024;BME280;59889;50.700;5.440;2023-05-07T10:36:53;100155.99;;;24.39;36.25
72024;BME280;59889;50.700;5.440;2023-05-07T10:39:19;100155.41;;;24.46;36.08
72024;BME280;59889;50.700;5.440;2023-05-07T10:41:43;100157.69;;;24.40;36.07
72024;BME280;59889;50.700;5.440;2023-05-07T10:44:08;100160.06;;;24.50;36.28
72024;BME280;59889;50.700;5.440;2023-05-07T10:46:33;100164.11;;;24.36;36.17
72024;BME280;59889;50.700;5.440;2023-05-07T10:49:08;100166.73;;;24.62;36.09
72024;BME280;59889;50.700;5.440;2023-05-07T10:51:23;100167.27;;;24.74;35.91
72024;BME280;59889;50.700;5.440;2023-05-07T10:53:48;100168.08;;;24.74;35.88
72024;BME280;59889;50.700;5.440;2023-05-07T10:56:24;100167.56;;;24.79;35.81
72024;BME280;59889;50.700;5.440;2023-05-07T10:58:38;100169.80;;;24.68;35.93
72024;BME280;59889;50.700;5.440;2023-05-07T11:01:03;100168.72;;;24.71;35.90
72024;BME280;59889;50.700;5.440;2023-05-07T11:03:29;100166.95;;;24.69;35.93
72024;BME280;59889;50.700;5.440;2023-05-07T11:06:10;100164.62;;;24.74;35.91
72024;BME280;59889;50.700;5.440;2023-05-07T11:08:18;100164.07;;;24.84;35.77
72024;BME280;59889;50.700;5.440;2023-05-07T11:10:50;100166.43;;;24.52;35.83
72024;BME280;59889;50.700;5.440;2023-05-07T11:13:08;100167.25;;;24.70;35.87
72024;BME280;59889;50.700;5.440;2023-05-07T11:15:38;100168.95;;;24.73;35.85
72024;BME280;59889;50.700;5.440;2023-05-07T11:17:59;100170.49;;;24.78;35.84
72024;BME280;59889;50.700;5.440;2023-05-07T11:22:49;100171.73;;;24.58;35.85
72024;BME280;59889;50.700;5.440;2023-05-07T11:25:18;100175.85;;;24.41;36.31
72024;BME280;59889;50.700;5.440;2023-05-07T11:27:41;100176.32;;;24.71;36.10
72024;BME280;59889;50.700;5.440;2023-05-07T11:30:07;100178.38;;;24.78;36.02
72024;BME280;59889;50.700;5.440;2023-05-07T11:32:32;100179.83;;;24.40;36.20
72024;BME280;59889;50.700;5.440;2023-05-07T11:34:59;100181.37;;;24.75;36.11
72024;BME280;59889;50.700;5.440;2023-05-07T11:37:23;100183.82;;;24.79;36.10
72024;BME280;59889;50.700;5.440;2023-05-07T11:39:48;100186.48;;;24.79;36.05
72024;BME280;59889;50.700;5.440;2023-05-07T11:44:42;100185.71;;;24.73;36.18
72024;BME280;59889;50.700;5.440;2023-05-07T11:47:04;100187.69;;;24.66;36.27
72024;BME280;59889;50.700;5.440;2023-05-07T11:49:30;100187.09;;;24.67;36.29
72024;BME280;59889;50.700;5.440;2023-05-07T11:51:53;100187.82;;;24.73;36.19
72024;BME280;59889;50.700;5.440;2023-05-07T11:54:19;100186.16;;;24.63;36.34
72024;BME280;59889;50.700;5.440;2023-05-07T11:56:44;100186.65;;;24.62;36.43
72024;BME280;59889;50.700;5.440;2023-05-07T11:59:09;100188.79;;;24.64;36.35
72024;BME280;59889;50.700;5.440;2023-05-07T12:01:35;100187.51;;;24.30;36.51
72024;BME280;59889;50.700;5.440;2023-05-07T12:04:02;100189.85;;;24.40;36.34
72024;BME280;59889;50.700;5.440;2023-05-07T12:06:24;100188.35;;;24.65;36.37
72024;BME280;59889;50.700;5.440;2023-05-07T12:08:49;100187.15;;;24.59;36.45
72024;BME280;59889;50.700;5.440;2023-05-07T12:11:16;100188.62;;;24.67;36.33
72024;BME280;59889;50.700;5.440;2023-05-07T12:13:40;100190.99;;;24.42;36.32
72024;BME280;59889;50.700;5.440;2023-05-07T12:16:06;100192.43;;;24.66;36.33
72024;BME280;59889;50.700;5.440;2023-05-07T12:18:30;100195.28;;;24.60;36.41
72024;BME280;59889;50.700;5.440;2023-05-07T12:20:54;100196.35;;;24.56;36.48
72024;BME280;59889;50.700;5.440;2023-05-07T12:23:20;100198.42;;;24.41;36.41
72024;BME280;59889;50.700;5.440;2023-05-07T12:25:45;100199.27;;;24.62;36.39
72024;BME280;59889;50.700;5.440;2023-05-07T12:28:12;100198.93;;;24.85;36.33
72024;BME280;59889;50.700;5.440;2023-05-07T12:30:36;100197.26;;;24.55;36.41
72024;BME280;59889;50.700;5.440;2023-05-07T12:32:59;100197.28;;;24.62;36.30
72024;BME280;59889;50.700;5.440;2023-05-07T12:35:28;100197.49;;;24.36;36.34
72024;BME280;59889;50.700;5.440;2023-05-07T12:37:55;100196.59;;;24.58;36.36
72024;BME280;59889;50.700;5.440;2023-05-07T12:40:14;100196.91;;;24.56;36.39
72024;BME280;59889;50.700;5.440;2023-05-07T12:42:40;100196.84;;;24.58;36.40
72024;BME280;59889;50.700;5.440;2023-05-07T12:45:09;100197.40;;;24.56;36.40
72024;BME280;59889;50.700;5.440;2023-05-07T12:47:30;100196.18;;;24.57;36.40